SASJ/JUJ METAR and TAF weather

Enter ICAO airport designator
Station Type Date Time Source
SASJ METAR 2019/12/07 17:00 UTC NOAA

SASJ 071700Z 05010KT 9999 FEW025 SCT100 27/16 Q1012


Station Type Date Time Source
SASJ Decoded METAR 2019/12/07 17:00 UTC NOAA

Jujuy Aerodrome, Argentina (SASJ) 24-23S 065-05W 905M
Dec 07, 2019 - 12:00 PM EST / 2019.12.07 1700 UTC
Wind: from the NE (050 degrees) at 12 MPH (10 KT):0
Visibility: greater than 7 mile(s):0
Sky conditions: partly cloudy
Temperature: 80 F (27 C)
Dew Point: 60 F (16 C)
Relative Humidity: 50%
Pressure (altimeter): 29.88 in. Hg (1012 hPa)
ob: SASJ 071700Z 05010KT 9999 FEW025 SCT100 27/16 Q1012
cycle: 17

Station Type Date Time Source
SASJ TAF 2019/12/07 18:15 UTC NOAA

TAF SASJ 071700Z 0718/0818 09005KT 9999 SCT025 FEW040CB TX32/0818Z TN17/0810Z
BECMG 0721/0723 29010KT 5000 TSRA BKN030 FEW040CB
BECMG 0803/0806 VRB03KT 9999 NSW SCT012 BKN020

Example: see airport list